Time;durP1;ratioP1;P1;durP2;ratioP2;P2;SDS_P1;SDS_P2;PMS_P1;PMS_P2;Temp;Humidity;BMP_temperature;BMP_pressure;BME280_temperature;BME280_humidity;BME280_pressure;Samples;Min_cycle;Max_cycle;Signal;HPM_P1;HPM_P2
2023/12/28 12:37:49;;;;;;;;;;;;;;;21.51;66.31;100138.59;109280;1262;612525;-92
2023/12/28 12:40:24;;;;;;;;;;;;;;;22.18;61.56;100139.59;111127;1247;139798;-84
2023/12/28 12:42:58;;;;;;;;;;;;;;;22.21;58.96;100137.52;2181;1262;180093;-87
2023/12/28 12:45:32;;;;;;;;;;;;;;;22.41;57.48;100133.96;5684;1248;462435;-82
2023/12/28 12:48:59;;;;;;;;;;;;;;;22.40;56.25;100137.98;2242;1253;331462;-93
2023/12/28 12:51:40;;;;;;;;;;;;;;;22.87;53.68;100120.48;2262;1253;192358;-83
2023/12/28 13:02:31;;;;;;;22.10;12.10;;;;;;;22.78;51.71;100108.71;105837;269;2231438;-91
2023/12/28 13:05:13;;;;;;;21.90;11.40;;;;;;;22.59;51.05;100109.17;111187;249;154096;-92
2023/12/28 13:07:52;;;;;;;24.70;12.70;;;;;;;22.44;50.67;100111.31;111321;251;38286;-91
2023/12/28 13:10:30;;;;;;;27.00;12.30;;;;;;;22.30;50.25;100104.36;111198;251;38711;-91
2023/12/28 13:13:22;;;;;;;19.50;10.30;;;;;;;22.19;49.86;100103.81;107538;248;2671748;-88
2023/12/28 13:17:17;;;;;;;24.00;9.70;;;;;;;22.44;50.33;100106.66;106353;271;2220810;-92
2023/12/28 13:25:35;;;;;;;7.40;5.40;;;;;;;23.19;43.62;100181.88;109094;262;603475;-73
2023/12/28 13:28:12;;;;;;;7.60;5.60;;;;;;;21.25;40.96;100187.39;110712;249;38314;-71
2023/12/28 13:30:55;;;;;;;8.80;5.30;;;;;;;19.35;41.45;100190.46;110749;249;38423;-73
2023/12/28 13:33:30;;;;;;;9.40;5.80;;;;;;;17.79;42.47;100197.45;110722;249;38774;-72
2023/12/28 13:36:05;;;;;;;9.00;5.90;;;;;;;16.50;44.20;100198.25;110501;249;38411;-73
2023/12/28 13:38:39;;;;;;;9.00;6.30;;;;;;;15.44;45.77;100203.50;110449;248;339857;-73
2023/12/28 13:41:13;;;;;;;8.30;5.60;;;;;;;14.50;47.27;100208.86;110583;247;154018;-72
2023/12/28 13:43:47;;;;;;;9.00;5.60;;;;;;;13.66;48.51;100210.80;110580;250;39061;-73
2023/12/28 13:46:22;;;;;;;10.10;6.00;;;;;;;12.93;49.98;100215.81;109487;250;1234363;-71
2023/12/28 13:48:56;;;;;;;8.30;6.00;;;;;;;12.32;51.37;100213.39;110702;248;38532;-72
2023/12/28 13:51:30;;;;;;;8.80;6.40;;;;;;;11.77;52.56;100216.95;110728;248;38232;-71
2023/12/28 13:54:05;;;;;;;9.20;6.60;;;;;;;11.27;53.68;100218.30;110587;239;191626;-72
2023/12/28 13:56:41;;;;;;;9.30;6.30;;;;;;;10.82;54.92;100223.35;110743;248;39324;-74
2023/12/28 13:59:16;;;;;;;8.70;6.70;;;;;;;10.41;55.86;100217.69;110766;248;38250;-73
2023/12/28 14:01:50;;;;;;;13.40;7.60;;;;;;;10.03;56.95;100219.29;110758;248;38269;-74
2023/12/28 14:05:01;;;;;;;11.60;6.40;;;;;;;9.71;57.88;100217.21;110599;248;154486;-74
2023/12/28 14:07:35;;;;;;;13.60;7.50;;;;;;;9.33;59.03;100219.25;110702;248;38712;-71
2023/12/28 14:10:11;;;;;;;12.20;7.10;;;;;;;9.07;59.91;100221.75;110647;247;154244;-73
2023/12/28 14:12:45;;;;;;;16.20;7.00;;;;;;;8.81;60.89;100217.23;110633;248;38854;-71
2023/12/28 14:15:20;;;;;;;11.00;6.70;;;;;;;8.63;61.40;100213.48;110745;248;38277;-71
2023/12/28 14:17:55;;;;;;;10.10;7.10;;;;;;;8.52;62.06;100211.05;110654;246;153428;-71
2023/12/28 14:20:31;;;;;;;11.00;7.10;;;;;;;8.41;62.68;100213.66;110830;248;38276;-71
2023/12/28 14:23:09;;;;;;;12.20;7.60;;;;;;;8.29;63.42;100216.27;110577;248;153201;-70
2023/12/28 14:25:51;;;;;;;15.00;7.40;;;;;;;8.12;63.91;100214.49;110812;248;38231;-72
2023/12/28 14:28:29;;;;;;;14.20;7.90;;;;;;;8.05;64.54;100222.21;110638;246;153054;-72
2023/12/28 14:31:12;;;;;;;11.30;7.70;;;;;;;7.95;65.11;100228.77;110765;248;39057;-71
2023/12/28 14:33:52;;;;;;;12.40;8.10;;;;;;;7.84;65.65;100231.33;111007;247;38256;-72
2023/12/28 14:36:32;;;;;;;12.50;7.50;;;;;;;7.74;66.23;100230.05;110866;246;38382;-72
2023/12/28 14:39:09;;;;;;;12.60;7.60;;;;;;;7.69;66.74;100228.11;110956;246;39585;-71
2023/12/28 14:41:44;;;;;;;17.90;7.70;;;;;;;7.75;67.47;100237.48;110727;245;153392;-73
2023/12/28 14:44:24;;;;;;;10.00;6.30;;;;;;;7.86;67.91;100242.21;110855;246;38257;-72
2023/12/28 14:46:59;;;;;;;10.00;6.50;;;;;;;7.91;67.82;100242.77;110770;245;153958;-71
2023/12/28 14:49:37;;;;;;;12.40;7.10;;;;;;;7.86;67.68;100243.41;110951;246;38279;-71
2023/12/28 14:52:12;;;;;;;12.10;7.30;;;;;;;7.78;67.79;100241.95;110781;244;153367;-74
2023/12/28 14:54:47;;;;;;;11.30;7.10;;;;;;;7.68;68.00;100239.44;110853;246;39469;-72
2023/12/28 14:57:23;;;;;;;12.30;7.80;;;;;;;7.55;68.02;100241.70;110907;246;38509;-76
2023/12/28 14:59:57;;;;;;;13.90;7.40;;;;;;;7.40;68.19;100233.44;110842;244;153068;-74
2023/12/28 15:02:32;;;;;;;11.10;6.80;;;;;;;7.28;68.49;100232.03;110878;246;38869;-72
2023/12/28 15:05:11;;;;;;;11.70;7.20;;;;;;;7.15;68.73;100236.36;110928;246;39713;-72
2023/12/28 15:07:47;;;;;;;11.60;7.70;;;;;;;7.02;68.99;100235.48;110654;246;175494;-74
2023/12/28 15:10:24;;;;;;;11.00;6.90;;;;;;;6.91;69.27;100238.19;110805;244;153796;-72
2023/12/28 15:13:00;;;;;;;12.40;7.40;;;;;;;6.78;69.66;100239.55;110835;246;38343;-72
2023/12/28 15:15:37;;;;;;;10.20;7.20;;;;;;;6.65;69.91;100233.27;110887;246;38416;-73
2023/12/28 15:18:17;;;;;;;10.20;7.00;;;;;;;6.49;70.19;100236.60;110648;244;154212;-73
2023/12/28 15:20:54;;;;;;;13.90;7.90;;;;;;;6.35;70.64;100234.33;110775;246;38251;-73
2023/12/28 15:23:38;;;;;;;9.70;6.50;;;;;;;6.26;70.90;100236.44;110648;244;153617;-74
2023/12/28 15:26:17;;;;;;;13.10;6.80;;;;;;;6.17;71.19;100236.46;110745;246;38759;-72
2023/12/28 15:28:52;;;;;;;13.20;6.80;;;;;;;6.11;71.53;100237.64;110799;244;154018;-75
2023/12/28 15:31:27;;;;;;;12.10;7.20;;;;;;;6.03;71.80;100237.64;110759;246;38968;-74
2023/12/28 15:34:01;;;;;;;11.80;7.90;;;;;;;5.94;72.16;100242.33;110901;246;38253;-73
2023/12/28 15:36:36;;;;;;;11.40;7.80;;;;;;;5.86;72.45;100245.41;110806;246;38281;-73
2023/12/28 15:39:13;;;;;;;11.20;7.60;;;;;;;5.79;72.64;100242.80;110757;246;38780;-70
2023/12/28 15:41:49;;;;;;;12.90;6.90;;;;;;;5.70;72.95;100240.00;110957;246;39321;-74
2023/12/28 15:44:26;;;;;;;13.50;7.50;;;;;;;5.67;73.36;100240.09;110768;246;38443;-74
2023/12/28 15:47:00;;;;;;;12.00;7.40;;;;;;;5.65;73.87;100238.21;110745;245;154001;-74
2023/12/28 15:49:37;;;;;;;12.20;7.80;;;;;;;5.67;74.34;100242.02;110901;246;39502;-73
2023/12/28 15:52:15;;;;;;;13.00;8.20;;;;;;;5.65;74.62;100238.55;110822;244;153265;-73
2023/12/28 15:54:49;;;;;;;13.80;8.40;;;;;;;5.65;74.83;100239.59;110951;246;38227;-73
2023/12/28 15:57:23;;;;;;;15.40;8.30;;;;;;;5.67;75.00;100241.63;110907;246;38233;-73
2023/12/28 16:00:00;;;;;;;15.30;8.90;;;;;;;5.71;75.21;100236.19;110733;246;154609;-74
2023/12/28 16:02:37;;;;;;;21.20;15.20;;;;;;;5.75;75.50;100231.27;110897;246;38543;-74
2023/12/28 16:05:12;;;;;;;18.80;11.10;;;;;;;5.79;75.81;100224.61;110721;246;38826;-72
2023/12/28 16:07:47;;;;;;;17.40;11.60;;;;;;;5.81;75.98;100214.52;110868;246;38758;-74
2023/12/28 16:10:21;;;;;;;19.60;11.60;;;;;;;5.82;75.98;100206.04;110875;246;38212;-74
2023/12/28 16:12:55;;;;;;;16.90;10.50;;;;;;;5.79;75.89;100206.77;110839;246;39183;-72
2023/12/28 16:15:37;;;;;;;17.30;10.50;;;;;;;5.77;75.82;100200.06;110970;246;39469;-72
2023/12/28 16:18:16;;;;;;;18.20;10.80;;;;;;;5.75;75.83;100198.21;110669;245;153733;-74
2023/12/28 16:20:51;;;;;;;19.10;10.80;;;;;;;5.74;75.96;100197.38;110638;246;175663;-74
2023/12/28 16:23:27;;;;;;;17.20;10.90;;;;;;;5.71;76.19;100198.13;110690;244;154490;-71
2023/12/28 16:26:02;;;;;;;16.90;11.30;;;;;;;5.67;76.04;100202.17;110802;246;38752;-73
2023/12/28 16:28:37;;;;;;;20.50;11.90;;;;;;;5.60;76.39;100205.95;110948;244;39157;-73
2023/12/28 16:31:11;;;;;;;17.90;11.20;;;;;;;5.54;76.46;100206.09;110937;244;39586;-72
2023/12/28 16:33:45;;;;;;;17.40;11.10;;;;;;;5.50;76.32;100209.44;110965;244;38771;-73
2023/12/28 16:36:19;;;;;;;17.80;11.00;;;;;;;5.49;76.37;100212.41;110851;244;153778;-72
2023/12/28 16:38:53;;;;;;;17.60;11.70;;;;;;;5.46;76.51;100213.48;111000;244;38804;-73
2023/12/28 16:41:28;;;;;;;19.50;11.50;;;;;;;5.45;76.68;100212.48;110966;244;39577;-73
2023/12/28 16:44:02;;;;;;;19.10;11.40;;;;;;;5.44;76.76;100218.23;110933;244;39638;-74
2023/12/28 16:46:37;;;;;;;19.70;11.10;;;;;;;5.40;76.65;100218.83;111003;244;38527;-73
2023/12/28 16:49:11;;;;;;;21.60;11.80;;;;;;;5.34;76.72;100216.49;110972;244;39497;-73
2023/12/28 16:51:46;;;;;;;17.20;10.20;;;;;;;5.31;76.93;100217.93;110936;244;39147;-71
2023/12/28 16:54:21;;;;;;;18.50;10.60;;;;;;;5.31;77.00;100218.97;110860;242;154998;-73
2023/12/28 16:56:54;;;;;;;17.40;11.30;;;;;;;5.32;77.01;100222.42;110947;244;38738;-73
2023/12/28 16:59:31;;;;;;;16.50;11.00;;;;;;;5.32;77.08;100221.39;110799;243;154322;-71
2023/12/28 17:02:05;;;;;;;21.00;11.00;;;;;;;5.31;77.22;100223.30;110956;244;39702;-72
2023/12/28 17:04:42;;;;;;;19.10;10.50;;;;;;;5.31;77.43;100223.13;111002;244;40459;-72
2023/12/28 17:07:17;;;;;;;20.60;10.90;;;;;;;5.30;77.35;100219.70;110970;244;39981;-74
2023/12/28 17:10:02;;;;;;;19.30;10.00;;;;;;;5.30;77.36;100221.25;110959;244;38402;-74
2023/12/28 17:12:42;;;;;;;17.10;10.40;;;;;;;5.32;77.36;100225.88;110848;243;153949;-72
2023/12/28 17:15:18;;;;;;;16.70;10.50;;;;;;;5.32;77.39;100231.92;110993;244;39731;-72
2023/12/28 17:17:55;;;;;;;18.70;9.80;;;;;;;5.32;77.49;100239.36;110891;244;153612;-73
2023/12/28 17:20:31;;;;;;;16.30;10.30;;;;;;;5.30;77.57;100242.35;110977;244;38402;-72
2023/12/28 17:23:09;;;;;;;16.80;11.00;;;;;;;5.30;77.75;100242.00;110839;244;153680;-71
2023/12/28 17:25:50;;;;;;;16.40;10.20;;;;;;;5.29;77.77;100244.80;111035;246;38463;-73
2023/12/28 17:28:26;;;;;;;16.90;10.10;;;;;;;5.30;77.68;100248.08;111096;246;39669;-71
2023/12/28 17:31:00;;;;;;;17.20;10.50;;;;;;;5.32;77.84;100243.00;110724;245;153691;-72
2023/12/28 17:33:39;;;;;;;16.50;9.40;;;;;;;5.34;77.79;100247.80;110950;245;38224;-74
2023/12/28 17:36:26;;;;;;;16.40;9.80;;;;;;;5.36;77.82;100242.23;110866;245;154190;-71
2023/12/28 17:39:10;;;;;;;18.10;10.00;;;;;;;5.35;77.82;100243.98;111076;246;39476;-71
2023/12/28 17:41:46;;;;;;;17.50;10.80;;;;;;;5.34;78.07;100246.44;110877;243;153372;-73
2023/12/28 17:44:25;;;;;;;16.70;9.90;;;;;;;5.32;78.01;100245.60;110911;245;38255;-70
2023/12/28 17:47:05;;;;;;;17.20;9.40;;;;;;;5.32;78.10;100246.13;110849;243;154046;-71
2023/12/28 17:49:47;;;;;;;16.20;9.30;;;;;;;5.34;78.17;100242.27;110894;246;38033;-72
2023/12/28 17:52:24;;;;;;;15.70;9.90;;;;;;;5.37;78.21;100245.86;111094;246;38715;-71
2023/12/28 17:55:00;;;;;;;17.00;10.30;;;;;;;5.38;78.11;100244.64;110869;243;154695;-73
2023/12/28 17:57:33;;;;;;;16.20;9.70;;;;;;;5.36;78.15;100249.34;110953;245;38273;-72
2023/12/28 18:00:12;;;;;;;15.50;10.20;;;;;;;5.34;78.18;100247.99;110905;245;153478;-71
2023/12/28 18:02:47;;;;;;;16.30;10.10;;;;;;;5.33;78.10;100251.12;111039;246;38289;-70
2023/12/28 18:05:21;;;;;;;18.10;10.10;;;;;;;5.33;78.11;100253.55;110956;243;155034;-72
2023/12/28 18:07:55;;;;;;;15.90;10.30;;;;;;;5.31;77.99;100255.13;110972;245;40034;-74
2023/12/28 18:10:29;;;;;;;16.10;10.10;;;;;;;5.30;78.17;100253.61;110951;245;38286;-74
2023/12/28 18:13:08;;;;;;;16.70;10.60;;;;;;;5.27;78.12;100253.83;110815;243;153468;-74
2023/12/28 18:15:45;;;;;;;19.20;11.70;;;;;;;5.22;78.14;100259.96;111045;246;38548;-73
2023/12/28 18:18:26;;;;;;;16.80;10.90;;;;;;;5.16;78.33;100252.11;110887;243;154897;-72
2023/12/28 18:21:00;;;;;;;18.50;11.60;;;;;;;5.13;78.63;100256.48;110982;245;38874;-71
2023/12/28 18:23:35;;;;;;;16.40;10.00;;;;;;;5.13;78.78;100250.45;110859;242;155132;-72
2023/12/28 18:26:11;;;;;;;19.40;11.40;;;;;;;5.16;79.14;100246.23;110959;244;38262;-72
2023/12/28 18:28:44;;;;;;;16.10;10.50;;;;;;;5.16;79.14;100240.70;110928;244;40778;-72
2023/12/28 18:31:19;;;;;;;20.00;11.60;;;;;;;5.19;79.13;100235.30;111036;244;38369;-74
2023/12/28 18:33:54;;;;;;;18.40;11.40;;;;;;;5.17;79.24;100229.44;110942;244;39546;-74
2023/12/28 18:36:32;;;;;;;18.60;11.10;;;;;;;5.16;79.29;100230.66;110818;244;154670;-71
2023/12/28 18:39:06;;;;;;;21.80;11.30;;;;;;;5.17;79.34;100228.06;110969;244;38021;-72
2023/12/28 18:41:41;;;;;;;16.10;10.50;;;;;;;5.18;79.45;100231.52;110966;244;39390;-72
2023/12/28 18:44:15;;;;;;;16.50;10.70;;;;;;;5.19;79.31;100230.45;110962;244;38279;-72
2023/12/28 18:46:50;;;;;;;21.00;11.20;;;;;;;5.20;79.31;100234.24;110968;244;39431;-73
2023/12/28 18:49:28;;;;;;;15.70;10.60;;;;;;;5.18;79.42;100229.61;110836;242;154544;-74
2023/12/28 18:52:10;;;;;;;17.70;10.70;;;;;;;5.17;79.59;100228.05;110958;244;38229;-70
2023/12/28 18:54:46;;;;;;;18.20;11.10;;;;;;;5.12;79.49;100225.91;110987;244;38679;-71
2023/12/28 18:57:23;;;;;;;16.60;10.50;;;;;;;5.15;79.50;100229.48;110949;244;38283;-73
2023/12/28 18:59:57;;;;;;;18.30;11.20;;;;;;;5.16;79.55;100223.76;110857;244;153909;-72
2023/12/28 19:02:31;;;;;;;16.50;11.00;;;;;;;5.15;79.70;100226.88;110958;244;38285;-73
2023/12/28 19:05:07;;;;;;;15.40;10.40;;;;;;;5.15;79.65;100224.80;110946;244;38245;-70
2023/12/28 19:07:44;;;;;;;19.50;11.30;;;;;;;5.13;79.78;100221.56;110978;244;38263;-72
2023/12/28 19:10:20;;;;;;;19.90;11.20;;;;;;;5.09;79.81;100229.41;110973;244;38254;-73
2023/12/28 19:12:57;;;;;;;16.50;10.10;;;;;;;5.07;79.89;100231.18;110813;242;155243;-73
2023/12/28 19:15:31;;;;;;;16.30;10.40;;;;;;;5.07;79.88;100230.15;111000;244;38388;-73
2023/12/28 19:18:05;;;;;;;14.10;9.60;;;;;;;5.08;80.10;100230.48;110957;244;38791;-73
2023/12/28 19:20:39;;;;;;;17.20;10.90;;;;;;;5.09;80.14;100235.81;111002;244;38418;-69
2023/12/28 19:23:13;;;;;;;18.60;11.30;;;;;;;5.10;80.24;100230.10;110958;244;38485;-71
2023/12/28 19:25:47;;;;;;;18.00;10.80;;;;;;;5.08;80.31;100235.31;110989;244;38404;-71
2023/12/28 19:28:22;;;;;;;20.60;11.60;;;;;;;5.07;80.23;100236.02;110918;244;38403;-73
2023/12/28 19:30:58;;;;;;;18.00;10.70;;;;;;;5.06;80.16;100233.80;110966;244;39040;-71
2023/12/28 19:33:32;;;;;;;18.00;10.40;;;;;;;5.05;80.16;100234.67;110961;244;38293;-70
2023/12/28 19:36:07;;;;;;;17.20;10.80;;;;;;;5.08;80.28;100236.69;110844;243;155268;-72
2023/12/28 19:38:41;;;;;;;18.80;11.60;;;;;;;5.09;80.35;100231.48;110982;244;39201;-71
2023/12/28 19:41:15;;;;;;;17.80;10.70;;;;;;;5.09;80.42;100221.81;110970;244;38308;-72
2023/12/28 19:43:51;;;;;;;15.70;10.20;;;;;;;5.08;80.58;100223.56;110816;244;154319;-73
2023/12/28 19:46:25;;;;;;;19.10;11.00;;;;;;;5.08;80.71;100224.77;110884;244;175609;-73
2023/12/28 19:49:02;;;;;;;18.30;10.60;;;;;;;5.08;80.95;100225.12;110836;242;154522;-74
2023/12/28 19:51:37;;;;;;;17.30;10.90;;;;;;;5.12;80.86;100226.77;111002;244;39709;-73
2023/12/28 19:54:11;;;;;;;16.10;9.80;;;;;;;5.17;80.78;100230.14;110861;242;154094;-74
2023/12/28 19:56:45;;;;;;;14.40;10.00;;;;;;;5.20;80.71;100223.17;110996;244;38618;-74
2023/12/28 19:59:19;;;;;;;17.60;11.00;;;;;;;5.21;80.62;100220.89;110993;244;38230;-74
2023/12/28 20:01:55;;;;;;;17.50;10.60;;;;;;;5.20;80.57;100228.19;110987;242;38658;-73
2023/12/28 20:04:30;;;;;;;16.50;10.40;;;;;;;5.16;80.48;100226.17;110977;244;37933;-73
2023/12/28 20:07:04;;;;;;;16.10;10.20;;;;;;;5.13;80.46;100224.52;110804;243;154342;-72
2023/12/28 20:09:38;;;;;;;18.80;11.30;;;;;;;5.10;80.44;100223.17;110988;244;38241;-74
2023/12/28 20:12:12;;;;;;;20.10;11.60;;;;;;;5.08;80.64;100220.27;110822;244;153694;-74
2023/12/28 20:14:46;;;;;;;19.30;10.50;;;;;;;5.08;80.68;100227.37;110984;244;38661;-73
2023/12/28 20:17:22;;;;;;;19.50;11.00;;;;;;;5.06;80.72;100226.17;110907;244;39696;-73
2023/12/28 20:19:59;;;;;;;18.80;11.50;;;;;;;5.04;80.88;100231.41;110974;244;38506;-73
2023/12/28 20:22:33;;;;;;;18.40;11.10;;;;;;;5.05;80.94;100233.48;111054;243;38439;-72
2023/12/28 20:25:09;;;;;;;17.20;10.30;;;;;;;5.08;81.01;100229.95;110850;242;155153;-74
2023/12/28 20:27:43;;;;;;;15.00;10.50;;;;;;;5.13;81.11;100224.33;110937;244;38332;-72
2023/12/28 20:30:18;;;;;;;19.80;11.30;;;;;;;5.17;81.16;100219.93;110893;242;154654;-73
2023/12/28 20:32:52;;;;;;;17.10;11.40;;;;;;;5.20;80.95;100219.36;110983;244;38417;-74
2023/12/28 20:35:26;;;;;;;20.90;11.60;;;;;;;5.17;80.74;100221.49;110996;244;38435;-72
2023/12/28 20:38:00;;;;;;;18.30;12.20;;;;;;;5.12;80.70;100219.86;110955;244;39425;-72
2023/12/28 20:40:34;;;;;;;19.20;11.70;;;;;;;5.06;80.77;100219.96;110955;244;38375;-73
2023/12/28 20:43:08;;;;;;;18.90;11.10;;;;;;;5.03;80.76;100224.35;110832;243;154962;-73
2023/12/28 20:45:42;;;;;;;17.20;11.40;;;;;;;5.00;80.91;100221.64;111021;244;39941;-74
2023/12/28 20:48:17;;;;;;;18.20;11.20;;;;;;;4.98;80.88;100223.57;110838;243;154542;-73
2023/12/28 20:50:52;;;;;;;17.50;10.80;;;;;;;4.99;80.89;100224.43;110999;244;38827;-73
2023/12/28 20:53:27;;;;;;;17.10;11.10;;;;;;;4.97;80.90;100229.45;110965;244;38263;-72
2023/12/28 20:56:01;;;;;;;20.10;12.60;;;;;;;4.94;80.97;100227.78;110945;244;38252;-71
2023/12/28 20:58:36;;;;;;;18.10;11.40;;;;;;;4.91;81.07;100226.98;110954;244;39496;-73
2023/12/28 21:01:10;;;;;;;16.30;11.20;;;;;;;4.90;81.22;100234.08;110875;242;154326;-72
2023/12/28 21:03:44;;;;;;;18.20;10.90;;;;;;;4.92;81.33;100235.08;110939;244;38531;-73
2023/12/28 21:06:18;;;;;;;16.60;11.10;;;;;;;4.96;81.32;100232.77;110856;242;155061;-72
2023/12/28 21:08:56;;;;;;;18.00;11.60;;;;;;;4.99;81.49;100228.39;110976;244;38327;-72
2023/12/28 21:11:39;;;;;;;19.50;11.20;;;;;;;5.01;81.36;100223.48;110736;242;175396;-71
2023/12/28 21:14:14;;;;;;;19.40;11.80;;;;;;;5.00;81.22;100219.38;110970;244;40003;-72
2023/12/28 21:16:48;;;;;;;18.60;12.10;;;;;;;4.97;81.25;100219.26;110952;244;38371;-71
2023/12/28 21:19:22;;;;;;;18.40;10.60;;;;;;;4.91;81.08;100223.52;110867;244;154541;-72
2023/12/28 21:21:56;;;;;;;19.70;11.20;;;;;;;4.86;81.12;100229.46;110947;244;38300;-74
2023/12/28 21:24:34;;;;;;;17.70;11.60;;;;;;;4.85;81.25;100229.99;110814;242;153890;-74
2023/12/28 21:27:10;;;;;;;19.10;11.60;;;;;;;4.87;81.38;100232.05;110954;244;40159;-73
2023/12/28 21:29:44;;;;;;;18.40;11.30;;;;;;;4.87;81.43;100228.77;110723;242;175606;-74
2023/12/28 21:32:20;;;;;;;18.30;11.30;;;;;;;4.84;81.50;100230.55;110985;244;38510;-74
2023/12/28 21:34:54;;;;;;;18.40;11.10;;;;;;;4.80;81.49;100229.23;110980;244;39861;-73
2023/12/28 21:37:28;;;;;;;20.20;10.30;;;;;;;4.79;81.41;100227.01;110894;242;154006;-73
2023/12/28 21:40:02;;;;;;;18.00;10.90;;;;;;;4.79;81.43;100230.11;110601;244;524122;-70
2023/12/28 21:42:36;;;;;;;18.70;11.00;;;;;;;4.77;81.50;100225.98;110832;243;154760;-72
2023/12/28 21:45:13;;;;;;;17.50;11.00;;;;;;;4.76;81.49;100221.86;110951;245;38801;-72
2023/12/28 21:47:47;;;;;;;17.00;11.00;;;;;;;4.72;81.45;100218.48;110828;244;153765;-73
2023/12/28 21:50:21;;;;;;;19.00;10.90;;;;;;;4.67;81.53;100222.35;110960;245;38254;-70
2023/12/28 21:52:57;;;;;;;18.20;10.40;;;;;;;4.64;81.62;100223.61;110990;245;38213;-72
2023/12/28 21:55:30;;;;;;;15.00;9.90;;;;;;;4.64;81.72;100224.84;110876;243;154337;-72
2023/12/28 21:58:06;;;;;;;15.30;10.00;;;;;;;4.63;81.77;100224.14;111037;245;39705;-73
2023/12/28 22:00:40;;;;;;;15.90;10.40;;;;;;;4.62;81.82;100218.45;110941;245;153667;-70
2023/12/28 22:03:15;;;;;;;19.10;10.80;;;;;;;4.60;81.74;100219.70;111006;245;38316;-71
2023/12/28 22:05:50;;;;;;;17.70;10.20;;;;;;;4.58;81.82;100220.79;110907;245;153895;-72
2023/12/28 22:08:25;;;;;;;17.90;10.90;;;;;;;4.56;81.76;100213.73;111028;245;38569;-72
2023/12/28 22:11:00;;;;;;;16.70;10.80;;;;;;;4.56;81.77;100213.38;111013;245;38242;-73
2023/12/28 22:13:35;;;;;;;18.30;11.10;;;;;;;4.57;81.97;100208.52;110856;244;153675;-74
2023/12/28 22:16:10;;;;;;;16.90;10.80;;;;;;;4.56;81.96;100209.92;110993;245;38710;-71
2023/12/28 22:18:46;;;;;;;17.50;10.00;;;;;;;4.54;81.99;100206.67;110710;244;175670;-73
2023/12/28 22:21:21;;;;;;;17.80;10.30;;;;;;;4.52;81.87;100206.88;110967;245;38762;-73
2023/12/28 22:23:56;;;;;;;14.90;9.70;;;;;;;4.48;81.77;100202.98;110867;244;154191;-72
2023/12/28 22:26:30;;;;;;;16.60;9.80;;;;;;;4.46;81.88;100203.87;110985;245;38869;-74
2023/12/28 22:29:04;;;;;;;17.50;10.70;;;;;;;4.46;82.10;100207.33;110987;245;38694;-72
2023/12/28 22:31:38;;;;;;;15.60;9.70;;;;;;;4.45;82.22;100205.63;110836;245;154590;-73
2023/12/28 22:34:15;;;;;;;19.40;10.70;;;;;;;4.44;82.39;100210.98;110993;245;38528;-71
2023/12/28 22:36:49;;;;;;;19.90;9.90;;;;;;;4.44;82.44;100204.77;110850;244;154176;-73
2023/12/28 22:39:23;;;;;;;16.90;9.80;;;;;;;4.44;82.28;100204.08;110985;245;38828;-71
2023/12/28 22:41:57;;;;;;;15.20;9.60;;;;;;;4.43;82.34;100205.46;110857;242;155178;-71
2023/12/28 22:44:34;;;;;;;16.30;9.60;;;;;;;4.46;82.48;100200.23;110954;245;38273;-71
2023/12/28 22:47:08;;;;;;;15.40;9.50;;;;;;;4.50;82.50;100202.77;110949;245;38505;-72
2023/12/28 22:49:42;;;;;;;16.70;10.20;;;;;;;4.52;82.52;100203.77;110820;244;153389;-70
2023/12/28 22:52:17;;;;;;;15.00;10.30;;;;;;;4.52;82.39;100202.02;110991;245;39269;-70
2023/12/28 22:59:03;;;;;;;16.60;9.50;;;;;;;4.45;82.24;100203.20;110885;245;39028;-72
2023/12/28 23:01:39;;;;;;;16.90;9.80;;;;;;;4.46;82.16;100206.64;110872;244;154552;-71
2023/12/28 23:04:14;;;;;;;16.00;9.80;;;;;;;4.47;82.38;100204.38;110965;245;38489;-71
2023/12/28 23:06:48;;;;;;;15.00;10.40;;;;;;;4.46;82.33;100200.23;110827;244;153427;-69
2023/12/28 23:09:22;;;;;;;17.80;10.30;;;;;;;4.44;82.33;100197.33;110937;245;38514;-70
2023/12/28 23:11:57;;;;;;;15.20;10.00;;;;;;;4.42;82.31;100192.86;110833;244;153808;-70
2023/12/28 23:14:31;;;;;;;15.20;9.70;;;;;;;4.37;82.24;100190.36;110972;245;38280;-70
2023/12/28 23:17:10;;;;;;;14.30;8.70;;;;;;;4.34;82.17;100196.27;110952;245;39328;-67
2023/12/28 23:19:48;;;;;;;12.50;8.10;;;;;;;4.32;82.16;100198.55;110726;244;154205;-69
2023/12/28 23:22:22;;;;;;;15.10;9.40;;;;;;;4.31;82.24;100195.64;111059;244;39476;-69
2023/12/28 23:24:57;;;;;;;15.30;9.90;;;;;;;4.33;82.52;100193.53;110873;243;153668;-69
2023/12/28 23:27:40;;;;;;;16.60;9.80;;;;;;;4.34;82.64;100187.13;110942;245;38259;-69
2023/12/28 23:30:19;;;;;;;16.10;9.40;;;;;;;4.32;82.52;100181.61;110811;245;153729;-70
2023/12/28 23:32:54;;;;;;;14.90;9.20;;;;;;;4.30;82.45;100185.98;110916;245;38276;-69
2023/12/28 23:35:28;;;;;;;14.40;8.90;;;;;;;4.26;82.45;100182.05;111009;245;38998;-70
2023/12/28 23:38:02;;;;;;;13.50;8.50;;;;;;;4.25;82.36;100173.80;110676;244;175673;-71
2023/12/28 23:40:36;;;;;;;13.10;8.40;;;;;;;4.26;82.34;100174.29;110960;245;39960;-71
2023/12/28 23:43:10;;;;;;;14.80;9.20;;;;;;;4.27;82.45;100174.45;110957;245;37986;-71
2023/12/28 23:45:44;;;;;;;14.00;8.90;;;;;;;4.26;82.45;100180.34;110945;245;40816;-71
2023/12/28 23:48:18;;;;;;;17.50;9.50;;;;;;;4.23;82.51;100178.84;110825;244;153815;-73
2023/12/28 23:50:52;;;;;;;15.80;9.80;;;;;;;4.20;82.58;100177.33;110978;245;38311;-70
2023/12/28 23:53:26;;;;;;;13.50;8.00;;;;;;;4.16;82.61;100176.17;110919;245;39325;-69
2023/12/28 23:56:01;;;;;;;14.10;8.00;;;;;;;4.13;82.55;100173.45;111042;245;38332;-70
2023/12/28 23:58:37;;;;;;;13.00;8.40;;;;;;;4.12;82.63;100173.98;110975;245;39679;-70
